Time;durP1;ratioP1;P1;durP2;ratioP2;P2;SDS_P1;SDS_P2;PMS_P1;PMS_P2;Temp;Humidity;BMP_temperature;BMP_pressure;BME280_temperature;BME280_humidity;BME280_pressure;Samples;Min_cycle;Max_cycle;Signal;HPM_P1;HPM_P2
2022/05/03 00:01:33;;;;;;;2.45;0.90;;;;;;;;;;4934093;29;20107;-70
2022/05/03 00:04:06;;;;;;;4.28;1.10;;;;;;;;;;4934344;29;20047;-71
2022/05/03 00:06:35;;;;;;;5.30;1.00;;;;;;;;;;4934245;29;20142;-71
2022/05/03 00:09:06;;;;;;;2.13;1.10;;;;;;;;;;4934348;29;20127;-71
2022/05/03 00:11:34;;;;;;;1.40;1.20;;;;;;;;;;4934355;29;20056;-71
2022/05/03 00:14:05;;;;;;;2.05;0.95;;;;;;;;;;4933885;29;20051;-71
2022/05/03 00:16:33;;;;;;;1.38;0.80;;;;;;;;;;4934341;29;20739;-72
2022/05/03 00:19:00;;;;;;;2.47;1.20;;;;;;;;;;4934429;29;20690;-72
2022/05/03 00:21:27;;;;;;;2.38;0.95;;;;;;;;;;4934324;29;20091;-72
2022/05/03 00:23:53;;;;;;;1.02;0.68;;;;;;;;;;4933934;29;20411;-69
2022/05/03 00:26:20;;;;;;;2.13;1.00;;;;;;;;;;4934137;29;20103;-72
2022/05/03 00:28:46;;;;;;;1.55;1.00;;;;;;;;;;4933838;29;20079;-72
2022/05/03 00:31:13;;;;;;;2.25;0.90;;;;;;;;;;4934140;29;20497;-71
2022/05/03 00:33:40;;;;;;;3.28;1.20;;;;;;;;;;4933959;29;20091;-71
2022/05/03 00:36:07;;;;;;;2.60;1.17;;;;;;;;;;4933990;29;20050;-71
2022/05/03 00:38:34;;;;;;;4.40;0.95;;;;;;;;;;4933933;29;20052;-71
2022/05/03 00:41:01;;;;;;;1.10;0.90;;;;;;;;;;4933819;29;20058;-69
2022/05/03 00:43:46;;;;;;;1.33;0.75;;;;;;;;;;4933296;29;20382;-72
2022/05/03 00:46:17;;;;;;;1.25;0.75;;;;;;;;;;4933230;29;20163;-71
2022/05/03 00:48:52;;;;;;;2.25;0.80;;;;;;;;;;4933551;29;20169;-71
2022/05/03 00:51:41;;;;;;;3.28;0.88;;;;;;;;;;4933754;29;20043;-71
2022/05/03 00:54:19;;;;;;;1.45;0.90;;;;;;;;;;4930554;29;20077;-71
2022/05/03 00:56:48;;;;;;;1.23;0.80;;;;;;;;;;4932423;29;20422;-71
2022/05/03 00:59:17;;;;;;;1.58;0.90;;;;;;;;;;4933899;29;20055;-71
2022/05/03 01:01:52;;;;;;;5.60;0.90;;;;;;;;;;4933530;29;20498;-71
2022/05/03 01:04:26;;;;;;;1.13;0.75;;;;;;;;;;4933199;29;20055;-71
2022/05/03 01:06:54;;;;;;;1.33;0.82;;;;;;;;;;4933404;29;20118;-72
2022/05/03 01:09:40;;;;;;;1.35;0.70;;;;;;;;;;4933385;29;20051;-70
2022/05/03 01:12:25;;;;;;;2.30;0.80;;;;;;;;;;4933741;29;20055;-71
2022/05/03 01:14:54;;;;;;;1.55;0.98;;;;;;;;;;4931975;29;20047;-70
2022/05/03 01:17:43;;;;;;;2.70;0.80;;;;;;;;;;5105905;27;20920;-69
2022/05/03 01:20:11;;;;;;;2.67;0.80;;;;;;;;;;5105952;28;20051;-70
2022/05/03 01:22:46;;;;;;;3.40;0.95;;;;;;;;;;5106103;28;20043;-71
2022/05/03 01:25:31;;;;;;;2.88;1.00;;;;;;;;;;5105932;28;20040;-70
2022/05/03 01:28:06;;;;;;;1.95;0.80;;;;;;;;;;5106022;28;20040;-70
2022/05/03 01:30:32;;;;;;;3.85;1.10;;;;;;;;;;5106035;28;20039;-68
2022/05/03 01:33:05;;;;;;;7.75;1.10;;;;;;;;;;5087423;28;20039;-70
2022/05/03 01:35:36;;;;;;;1.90;0.80;;;;;;;;;;5106048;28;20807;-69
2022/05/03 01:38:21;;;;;;;2.22;0.88;;;;;;;;;;5106021;28;20048;-70
2022/05/03 01:41:03;;;;;;;2.05;0.80;;;;;;;;;;5106475;28;20056;-69
2022/05/03 01:43:41;;;;;;;5.72;0.80;;;;;;;;;;5105611;28;20043;-70
2022/05/03 01:46:10;;;;;;;1.67;1.00;;;;;;;;;;5105591;28;20055;-69
2022/05/03 01:51:43;;;;;;;3.13;0.80;;;;;;;;;;5105807;28;20055;-70
2022/05/03 01:54:33;;;;;;;3.42;0.90;;;;;;;;;;5105225;28;20083;-70
2022/05/03 01:57:13;;;;;;;1.60;0.95;;;;;;;;;;5105241;28;20051;-70
2022/05/03 01:59:48;;;;;;;2.50;0.65;;;;;;;;;;5105318;28;20040;-71
2022/05/03 02:02:34;;;;;;;5.35;0.88;;;;;;;;;;5105792;28;20189;-71
2022/05/03 02:05:17;;;;;;;2.20;1.02;;;;;;;;;;5104171;28;20044;-71
2022/05/03 02:07:49;;;;;;;3.22;0.90;;;;;;;;;;5105032;28;20044;-71
2022/05/03 02:10:33;;;;;;;0.73;0.65;;;;;;;;;;5104434;28;20105;-71
2022/05/03 02:13:09;;;;;;;1.27;0.70;;;;;;;;;;5105327;28;20040;-70
2022/05/03 02:15:39;;;;;;;1.92;1.00;;;;;;;;;;5104418;28;20051;-71
2022/05/03 02:18:10;;;;;;;2.15;0.88;;;;;;;;;;5105172;28;20048;-71
2022/05/03 02:20:55;;;;;;;5.00;1.33;;;;;;;;;;5104887;28;20171;-71
2022/05/03 02:23:24;;;;;;;1.70;0.70;;;;;;;;;;5104993;28;20038;-71
2022/05/03 02:25:59;;;;;;;3.40;1.05;;;;;;;;;;5103431;28;20098;-70
2022/05/03 02:28:31;;;;;;;3.70;0.90;;;;;;;;;;5094369;28;20044;-71
2022/05/03 02:31:00;;;;;;;2.45;0.90;;;;;;;;;;5091073;28;20032;-71
2022/05/03 02:33:27;;;;;;;1.90;0.83;;;;;;;;;;5091470;28;20044;-71
2022/05/03 02:35:57;;;;;;;3.10;0.93;;;;;;;;;;5072654;28;20134;-70
2022/05/03 02:38:31;;;;;;;3.17;0.93;;;;;;;;;;5090194;28;20047;-70
2022/05/03 02:40:59;;;;;;;1.98;0.90;;;;;;;;;;5090982;28;20047;-71
2022/05/03 02:43:26;;;;;;;1.70;0.65;;;;;;;;;;5091298;28;20048;-70
2022/05/03 02:45:57;;;;;;;3.20;1.23;;;;;;;;;;5090709;28;20044;-71
2022/05/03 02:48:34;;;;;;;1.80;0.88;;;;;;;;;;5091266;28;20055;-70
2022/05/03 02:51:04;;;;;;;1.33;1.00;;;;;;;;;;5089907;28;20541;-70
2022/05/03 02:53:42;;;;;;;3.45;0.90;;;;;;;;;;5091307;28;20089;-70
2022/05/03 02:56:16;;;;;;;1.95;0.80;;;;;;;;;;5090637;28;20138;-70
2022/05/03 02:59:06;;;;;;;1.20;0.80;;;;;;;;;;5090984;28;20044;-71
2022/05/03 03:01:56;;;;;;;3.17;0.98;;;;;;;;;;5090831;28;20051;-71
2022/05/03 03:05:01;;;;;;;4.25;0.80;;;;;;;;;;5089616;28;20486;-71
2022/05/03 03:07:28;;;;;;;4.13;1.20;;;;;;;;;;5087631;28;20048;-71
2022/05/03 03:10:01;;;;;;;2.15;0.73;;;;;;;;;;5087995;28;20079;-71
2022/05/03 03:12:30;;;;;;;1.55;0.80;;;;;;;;;;5089354;28;20055;-70
2022/05/03 03:15:08;;;;;;;1.75;0.80;;;;;;;;;;5090377;28;20091;-69
2022/05/03 03:17:36;;;;;;;5.18;1.10;;;;;;;;;;5090455;28;20063;-69
2022/05/03 03:20:10;;;;;;;1.90;1.05;;;;;;;;;;5090244;28;20044;-69
2022/05/03 03:22:37;;;;;;;2.13;0.95;;;;;;;;;;5090458;28;20048;-69
2022/05/03 03:25:04;;;;;;;2.65;0.70;;;;;;;;;;5090139;28;20040;-70
2022/05/03 03:27:33;;;;;;;1.80;0.90;;;;;;;;;;5090360;28;20044;-70
2022/05/03 03:29:59;;;;;;;;;;;;;;;;;;5090814;28;20549;-70
2022/05/03 03:32:26;;;;;;;3.20;1.45;;;;;;;;;;5090429;28;19927;-70
2022/05/03 03:34:56;;;;;;;1.77;0.75;;;;;;;;;;5088338;28;20051;-70
2022/05/03 03:37:27;;;;;;;1.10;0.70;;;;;;;;;;5090070;28;20047;-70
2022/05/03 03:39:53;;;;;;;2.20;0.90;;;;;;;;;;5088964;28;20540;-70
2022/05/03 03:42:20;;;;;;;1.45;0.82;;;;;;;;;;5089087;28;20384;-70
2022/05/03 03:44:46;;;;;;;2.35;0.80;;;;;;;;;;5089919;28;20433;-70
2022/05/03 03:47:13;;;;;;;1.75;0.70;;;;;;;;;;5089633;28;20048;-70
2022/05/03 03:49:39;;;;;;;1.25;0.85;;;;;;;;;;5089696;28;20043;-70
2022/05/03 03:52:08;;;;;;;1.42;0.80;;;;;;;;;;5089895;28;20047;-70
2022/05/03 03:54:35;;;;;;;3.30;1.10;;;;;;;;;;5088796;28;20043;-69
2022/05/03 03:57:01;;;;;;;1.40;0.93;;;;;;;;;;5089498;28;20476;-70
2022/05/03 03:59:30;;;;;;;1.35;0.80;;;;;;;;;;5089213;28;20044;-71
2022/05/03 04:01:57;;;;;;;2.75;1.00;;;;;;;;;;5089639;28;20428;-72
2022/05/03 04:04:26;;;;;;;3.13;0.90;;;;;;;;;;5088833;28;20048;-71
2022/05/03 04:06:52;;;;;;;3.25;0.80;;;;;;;;;;5089594;28;20052;-71
2022/05/03 04:09:18;;;;;;;2.22;1.25;;;;;;;;;;5089315;28;20040;-71
2022/05/03 04:11:45;;;;;;;1.75;0.80;;;;;;;;;;5089667;28;20047;-72
2022/05/03 04:14:12;;;;;;;2.55;1.15;;;;;;;;;;5088904;28;20047;-72
2022/05/03 04:16:38;;;;;;;1.48;1.00;;;;;;;;;;5087991;28;20067;-72
2022/05/03 04:19:04;;;;;;;2.28;1.10;;;;;;;;;;5089301;28;20127;-72
2022/05/03 04:21:30;;;;;;;2.80;1.10;;;;;;;;;;5089107;28;20055;-72
2022/05/03 04:23:56;;;;;;;1.85;1.00;;;;;;;;;;5089166;28;20044;-72
2022/05/03 04:26:22;;;;;;;2.15;0.95;;;;;;;;;;5087582;28;20098;-72
2022/05/03 04:28:48;;;;;;;2.28;0.90;;;;;;;;;;5089020;28;20221;-71
2022/05/03 04:31:14;;;;;;;2.33;0.98;;;;;;;;;;5089167;28;20036;-69
2022/05/03 04:33:40;;;;;;;1.77;1.20;;;;;;;;;;5088990;28;20079;-69
2022/05/03 04:36:06;;;;;;;3.95;0.93;;;;;;;;;;5089084;28;20055;-70
2022/05/03 04:38:32;;;;;;;4.30;0.95;;;;;;;;;;5088969;28;20044;-71
2022/05/03 04:40:59;;;;;;;1.45;0.90;;;;;;;;;;5088368;28;20180;-72
2022/05/03 04:43:25;;;;;;;3.33;0.90;;;;;;;;;;5089453;28;20075;-70
2022/05/03 04:45:51;;;;;;;2.30;1.00;;;;;;;;;;5088782;28;20043;-70
2022/05/03 04:48:18;;;;;;;1.48;0.90;;;;;;;;;;5087901;28;20421;-71
2022/05/03 04:50:44;;;;;;;1.95;1.00;;;;;;;;;;5087263;28;20036;-70
2022/05/03 04:53:10;;;;;;;2.72;0.88;;;;;;;;;;5088727;28;20044;-71
2022/05/03 04:55:40;;;;;;;1.55;1.05;;;;;;;;;;5089021;28;20055;-70
2022/05/03 04:58:06;;;;;;;1.60;0.90;;;;;;;;;;5089109;28;20077;-68
2022/05/03 05:00:32;;;;;;;2.08;1.20;;;;;;;;;;5088687;28;20192;-68
2022/05/03 05:02:58;;;;;;;4.60;1.10;;;;;;;;;;5088512;28;20134;-70
2022/05/03 05:05:24;;;;;;;2.63;1.20;;;;;;;;;;5089060;28;20126;-70
2022/05/03 05:07:50;;;;;;;2.33;0.88;;;;;;;;;;5087802;28;20052;-70
2022/05/03 05:10:28;;;;;;;2.30;1.08;;;;;;;;;;5088846;28;20589;-70
2022/05/03 05:12:55;;;;;;;2.28;1.20;;;;;;;;;;5088863;28;20507;-70
2022/05/03 05:15:24;;;;;;;6.85;1.27;;;;;;;;;;5088187;28;20413;-71
2022/05/03 05:17:54;;;;;;;3.22;1.30;;;;;;;;;;5088225;28;20101;-70
2022/05/03 05:20:20;;;;;;;3.42;1.33;;;;;;;;;;5087386;28;20044;-71
2022/05/03 05:22:47;;;;;;;1.38;0.82;;;;;;;;;;5087812;28;20052;-70
2022/05/03 05:25:13;;;;;;;3.60;1.08;;;;;;;;;;5088415;28;20383;-71
2022/05/03 05:27:40;;;;;;;1.50;0.80;;;;;;;;;;5088918;28;20040;-71
2022/05/03 05:30:06;;;;;;;1.77;1.17;;;;;;;;;;5088315;28;20040;-71
2022/05/03 05:32:33;;;;;;;3.50;1.50;;;;;;;;;;5087045;28;20181;-71
2022/05/03 05:34:59;;;;;;;2.65;1.10;;;;;;;;;;5088681;28;20051;-73
2022/05/03 05:37:25;;;;;;;3.05;1.00;;;;;;;;;;5088741;28;20044;-72
2022/05/03 05:39:51;;;;;;;3.42;1.17;;;;;;;;;;5088152;28;20401;-72
2022/05/03 05:42:17;;;;;;;2.30;0.90;;;;;;;;;;5086816;28;20044;-72
2022/05/03 05:44:43;;;;;;;3.65;1.38;;;;;;;;;;5088176;28;20048;-71
2022/05/03 05:47:09;;;;;;;3.38;1.00;;;;;;;;;;5088510;28;20615;-71
2022/05/03 05:49:35;;;;;;;1.95;1.10;;;;;;;;;;5087026;28;20040;-71
2022/05/03 05:54:46;;;;;;;2.22;1.00;;;;;;;;;;5088570;28;20052;-70
2022/05/03 05:57:12;;;;;;;3.22;0.95;;;;;;;;;;5088399;28;20086;-70
2022/05/03 05:59:38;;;;;;;5.22;1.10;;;;;;;;;;5088163;28;20493;-69
2022/05/03 06:02:05;;;;;;;1.92;0.93;;;;;;;;;;5088346;28;20093;-70
2022/05/03 06:04:33;;;;;;;3.97;1.00;;;;;;;;;;5091006;28;20127;-70
2022/05/03 06:06:59;;;;;;;1.88;1.30;;;;;;;;;;5092215;28;20263;-70
2022/05/03 06:09:25;;;;;;;1.23;0.90;;;;;;;;;;5092378;28;20043;-70
2022/05/03 06:11:51;;;;;;;1.73;0.90;;;;;;;;;;5091951;28;20131;-70
2022/05/03 06:14:17;;;;;;;3.75;1.10;;;;;;;;;;5091948;28;20044;-70
2022/05/03 06:16:50;;;;;;;1.85;0.90;;;;;;;;;;5091569;28;20059;-69
2022/05/03 06:19:17;;;;;;;0.95;0.70;;;;;;;;;;5090859;28;20052;-70
2022/05/03 06:21:43;;;;;;;2.63;1.00;;;;;;;;;;5091935;28;20048;-70
2022/05/03 06:24:09;;;;;;;4.50;1.27;;;;;;;;;;5092171;28;20177;-71
2022/05/03 06:26:35;;;;;;;2.08;1.08;;;;;;;;;;5091275;28;20094;-71
2022/05/03 06:29:02;;;;;;;4.32;1.10;;;;;;;;;;5091894;28;20052;-70
2022/05/03 06:31:29;;;;;;;3.03;1.00;;;;;;;;;;5092005;28;20048;-72
2022/05/03 06:33:55;;;;;;;2.50;1.25;;;;;;;;;;5090973;28;20545;-74
2022/05/03 06:36:21;;;;;;;5.43;1.30;;;;;;;;;;5090556;28;20409;-73
2022/05/03 06:38:48;;;;;;;5.50;1.40;;;;;;;;;;5091953;28;20078;-72
2022/05/03 06:41:15;;;;;;;3.53;1.55;;;;;;;;;;5090519;28;20106;-72
2022/05/03 06:43:41;;;;;;;3.83;1.35;;;;;;;;;;5091734;28;20524;-70
2022/05/03 06:46:07;;;;;;;3.50;1.30;;;;;;;;;;5091363;28;20531;-69
2022/05/03 06:48:33;;;;;;;3.38;1.40;;;;;;;;;;5087324;28;20048;-70
2022/05/03 06:50:59;;;;;;;2.75;1.35;;;;;;;;;;5086699;28;20090;-70
2022/05/03 06:53:25;;;;;;;3.05;1.40;;;;;;;;;;5078468;28;20414;-70
2022/05/03 06:55:51;;;;;;;2.85;1.20;;;;;;;;;;5077168;28;20490;-69
2022/05/03 06:58:17;;;;;;;3.28;1.40;;;;;;;;;;5076295;28;20056;-69
2022/05/03 07:00:43;;;;;;;2.60;1.15;;;;;;;;;;5070539;28;20067;-69
2022/05/03 07:03:10;;;;;;;3.38;1.30;;;;;;;;;;5071208;28;20545;-70
2022/05/03 07:05:36;;;;;;;3.17;1.25;;;;;;;;;;5070789;28;20052;-71
2022/05/03 07:08:02;;;;;;;3.35;1.20;;;;;;;;;;5071024;28;20046;-69
2022/05/03 07:10:28;;;;;;;2.63;1.10;;;;;;;;;;5070812;28;20379;-70
2022/05/03 07:12:54;;;;;;;4.53;1.52;;;;;;;;;;5070632;28;20551;-70
2022/05/03 07:15:20;;;;;;;2.35;1.15;;;;;;;;;;5069806;28;20044;-69
2022/05/03 07:23:16;;;;;;;7.35;1.52;;;;;;;;;;5076430;28;20925;-71
2022/05/03 07:25:45;;;;;;;2.47;1.33;;;;;;;;;;5072221;28;20501;-69
2022/05/03 07:28:11;;;;;;;;;;;;;;;;;;5079374;28;20039;-70
2022/05/03 07:30:37;;;;;;;3.42;1.40;;;;;;;;;;5073194;28;19927;-71
2022/05/03 07:33:04;;;;;;;3.75;1.45;;;;;;;;;;5077459;28;20040;-70
2022/05/03 07:35:30;;;;;;;4.68;1.73;;;;;;;;;;5073137;28;20036;-70
2022/05/03 07:37:57;;;;;;;5.55;1.52;;;;;;;;;;5075983;28;20501;-70
2022/05/03 07:40:24;;;;;;;4.82;1.50;;;;;;;;;;5075469;28;20452;-71
2022/05/03 07:42:50;;;;;;;4.57;1.30;;;;;;;;;;5075577;28;20047;-71
2022/05/03 07:45:16;;;;;;;7.15;1.67;;;;;;;;;;5072297;28;20052;-69
2022/05/03 07:47:42;;;;;;;6.68;1.73;;;;;;;;;;5075233;28;20537;-70
2022/05/03 07:50:08;;;;;;;4.97;1.55;;;;;;;;;;5072625;28;20405;-70
2022/05/03 07:52:38;;;;;;;5.22;1.45;;;;;;;;;;5073493;28;20079;-70
2022/05/03 07:55:06;;;;;;;4.53;1.58;;;;;;;;;;5074841;28;20040;-70
2022/05/03 07:57:32;;;;;;;5.40;1.73;;;;;;;;;;5073800;28;20108;-70
2022/05/03 07:59:58;;;;;;;5.65;1.58;;;;;;;;;;5076694;28;20506;-69
2022/05/03 08:02:25;;;;;;;6.15;2.00;;;;;;;;;;5073138;28;20040;-71
2022/05/03 08:04:51;;;;;;;6.22;2.75;;;;;;;;;;5073273;28;20048;-72
2022/05/03 08:07:18;;;;;;;6.32;1.98;;;;;;;;;;5072729;28;20098;-70
2022/05/03 08:09:44;;;;;;;4.57;1.70;;;;;;;;;;5074865;28;20051;-71
2022/05/03 08:12:11;;;;;;;7.18;2.03;;;;;;;;;;5073372;28;20626;-72
2022/05/03 08:14:37;;;;;;;4.82;1.85;;;;;;;;;;5074600;28;20058;-72
2022/05/03 08:17:04;;;;;;;4.93;2.28;;;;;;;;;;5074075;28;20194;-69
2022/05/03 08:19:30;;;;;;;8.70;2.22;;;;;;;;;;5071883;28;20511;-71
2022/05/03 08:21:56;;;;;;;10.20;2.42;;;;;;;;;;5078039;28;20041;-71
2022/05/03 08:24:25;;;;;;;4.93;1.80;;;;;;;;;;5072424;28;20045;-71
2022/05/03 08:26:51;;;;;;;5.43;2.00;;;;;;;;;;5071536;28;20046;-71
2022/05/03 08:29:18;;;;;;;5.15;1.88;;;;;;;;;;5071122;28;20052;-71
2022/05/03 08:31:44;;;;;;;5.05;1.70;;;;;;;;;;5072589;28;20040;-71
2022/05/03 08:34:10;;;;;;;6.97;1.92;;;;;;;;;;5070759;28;20044;-71
2022/05/03 08:36:36;;;;;;;7.35;2.17;;;;;;;;;;5069526;28;20513;-71
2022/05/03 08:42:07;;;;;;;6.53;2.17;;;;;;;;;;5071199;28;20053;-71
2022/05/03 08:44:34;;;;;;;5.88;2.13;;;;;;;;;;5071495;28;20130;-71
2022/05/03 08:47:02;;;;;;;5.72;1.90;;;;;;;;;;5072288;28;20098;-71
2022/05/03 08:49:36;;;;;;;5.95;1.80;;;;;;;;;;5072889;28;20512;-71
2022/05/03 08:52:03;;;;;;;5.72;1.90;;;;;;;;;;5071937;28;20495;-71
2022/05/03 08:54:29;;;;;;;6.97;1.88;;;;;;;;;;5072212;28;20386;-71
2022/05/03 08:56:55;;;;;;;6.10;2.22;;;;;;;;;;5073799;28;20523;-72
2022/05/03 08:59:23;;;;;;;6.35;1.70;;;;;;;;;;5074358;28;20040;-72
2022/05/03 09:01:49;;;;;;;4.72;1.70;;;;;;;;;;5073842;28;20112;-71
2022/05/03 09:04:16;;;;;;;4.63;2.25;;;;;;;;;;5076248;28;20086;-71
2022/05/03 09:06:44;;;;;;;7.82;2.00;;;;;;;;;;5073346;28;20085;-71
2022/05/03 09:09:11;;;;;;;6.30;2.08;;;;;;;;;;5073209;28;20055;-71
2022/05/03 09:11:45;;;;;;;4.95;1.52;;;;;;;;;;5075730;28;20471;-71
2022/05/03 09:14:11;;;;;;;4.45;1.77;;;;;;;;;;5074294;28;20074;-71
2022/05/03 09:16:48;;;;;;;5.35;2.03;;;;;;;;;;5071922;28;20052;-71
2022/05/03 09:19:26;;;;;;;4.50;1.75;;;;;;;;;;5071954;28;20097;-71
2022/05/03 09:25:02;;;;;;;6.13;1.67;;;;;;;;;;5075305;28;20040;-72
2022/05/03 09:27:28;;;;;;;4.72;1.58;;;;;;;;;;5069712;28;20048;-71
2022/05/03 09:30:07;;;;;;;5.55;2.00;;;;;;;;;;5074483;28;20045;-71
2022/05/03 09:32:34;;;;;;;;;;;;;;;;;;5074932;28;20039;-71
2022/05/03 09:35:00;;;;;;;5.20;1.70;;;;;;;;;;5070709;28;19921;-72
2022/05/03 09:37:38;;;;;;;5.85;1.55;;;;;;;;;;5073663;28;20052;-71
2022/05/03 09:40:06;;;;;;;4.93;1.50;;;;;;;;;;5077948;28;20111;-70
2022/05/03 09:42:32;;;;;;;5.65;1.70;;;;;;;;;;5079246;28;20040;-70
2022/05/03 09:45:00;;;;;;;5.75;1.73;;;;;;;;;;5079156;28;20142;-71
2022/05/03 09:47:27;;;;;;;5.00;1.60;;;;;;;;;;5077921;28;20055;-71
2022/05/03 09:49:53;;;;;;;5.40;1.90;;;;;;;;;;5079266;28;20049;-71
2022/05/03 09:52:28;;;;;;;4.70;1.95;;;;;;;;;;5077969;28;20115;-71
2022/05/03 09:54:59;;;;;;;4.28;1.65;;;;;;;;;;5076493;28;20477;-71
2022/05/03 09:57:26;;;;;;;4.05;1.90;;;;;;;;;;5072201;28;20127;-71
2022/05/03 09:59:53;;;;;;;5.05;1.88;;;;;;;;;;5076592;28;20595;-71
2022/05/03 10:02:20;;;;;;;4.40;1.92;;;;;;;;;;5076912;28;20068;-70
2022/05/03 10:04:47;;;;;;;4.53;1.80;;;;;;;;;;5075790;28;20040;-71
2022/05/03 10:07:14;;;;;;;4.25;1.38;;;;;;;;;;5078364;28;20535;-70
2022/05/03 10:09:44;;;;;;;6.55;1.80;;;;;;;;;;5077206;28;20097;-71
2022/05/03 10:12:11;;;;;;;5.45;1.77;;;;;;;;;;5076546;28;20063;-71
2022/05/03 10:14:38;;;;;;;5.43;1.75;;;;;;;;;;5074885;28;20067;-71
2022/05/03 10:22:38;;;;;;;5.05;1.80;;;;;;;;;;5077855;28;20048;-71
2022/05/03 10:25:08;;;;;;;4.22;1.98;;;;;;;;;;5077375;28;20032;-71
2022/05/03 10:27:54;;;;;;;4.43;1.52;;;;;;;;;;5074764;28;20036;-72
2022/05/03 10:30:22;;;;;;;4.90;1.88;;;;;;;;;;5076305;28;20045;-71
2022/05/03 10:33:07;;;;;;;4.77;1.77;;;;;;;;;;5074120;28;20063;-71
2022/05/03 10:35:34;;;;;;;5.07;1.70;;;;;;;;;;5080527;28;20051;-71
2022/05/03 10:38:00;;;;;;;4.13;1.70;;;;;;;;;;5073023;28;20044;-72
2022/05/03 10:40:39;;;;;;;7.35;1.70;;;;;;;;;;5076289;28;20793;-72
2022/05/03 10:43:09;;;;;;;3.72;1.40;;;;;;;;;;5077177;28;20440;-72
2022/05/03 10:45:48;;;;;;;3.78;1.80;;;;;;;;;;5076781;28;20090;-70
2022/05/03 10:48:14;;;;;;;;;;;;;;;;;;5054272;28;20075;-71
2022/05/03 10:50:43;;;;;;;4.35;1.80;;;;;;;;;;5077686;28;19968;-71
2022/05/03 10:53:09;;;;;;;5.15;1.60;;;;;;;;;;5075746;28;20428;-71
2022/05/03 10:55:38;;;;;;;4.30;1.30;;;;;;;;;;5074268;28;20102;-72
2022/05/03 10:58:19;;;;;;;3.80;1.52;;;;;;;;;;5072248;28;20071;-71
2022/05/03 11:01:04;;;;;;;3.85;1.35;;;;;;;;;;5079609;28;20040;-70
2022/05/03 11:03:37;;;;;;;3.80;1.55;;;;;;;;;;5077271;28;20402;-70
2022/05/03 11:06:18;;;;;;;5.25;1.33;;;;;;;;;;5072293;28;20410;-70
2022/05/03 11:08:53;;;;;;;5.78;1.58;;;;;;;;;;5071089;28;20054;-70
2022/05/03 11:11:35;;;;;;;5.40;1.65;;;;;;;;;;5071142;28;20118;-69
2022/05/03 11:14:02;;;;;;;4.63;1.80;;;;;;;;;;5070603;28;20048;-69
2022/05/03 11:16:34;;;;;;;5.40;1.52;;;;;;;;;;5070550;28;20103;-69
2022/05/03 11:19:10;;;;;;;3.22;1.52;;;;;;;;;;5080718;28;20040;-68
2022/05/03 11:21:37;;;;;;;5.32;1.58;;;;;;;;;;5088950;28;20139;-70
2022/05/03 11:24:03;;;;;;;3.78;1.80;;;;;;;;;;5071356;28;20055;-70
2022/05/03 11:26:29;;;;;;;4.10;1.50;;;;;;;;;;5070292;28;20049;-72
2022/05/03 11:28:59;;;;;;;5.78;1.40;;;;;;;;;;5070555;28;20048;-70
2022/05/03 11:31:26;;;;;;;4.47;1.50;;;;;;;;;;5069135;28;20086;-71
2022/05/03 11:33:54;;;;;;;3.58;1.60;;;;;;;;;;5069698;28;20590;-69
2022/05/03 11:36:21;;;;;;;6.10;1.40;;;;;;;;;;5069787;28;20056;-69
2022/05/03 11:38:50;;;;;;;4.03;1.77;;;;;;;;;;5070562;28;20044;-71
2022/05/03 11:41:23;;;;;;;2.70;1.23;;;;;;;;;;5069893;28;20524;-70
2022/05/03 11:43:49;;;;;;;3.83;1.50;;;;;;;;;;5069319;28;20051;-70
2022/05/03 11:46:19;;;;;;;3.22;1.40;;;;;;;;;;5069870;28;20460;-73
2022/05/03 11:48:46;;;;;;;3.63;0.98;;;;;;;;;;5069981;28;20143;-73
2022/05/03 11:56:48;;;;;;;3.35;1.23;;;;;;;;;;5068517;28;20055;-71
2022/05/03 11:59:15;;;;;;;5.03;1.40;;;;;;;;;;5069537;28;20040;-72
2022/05/03 12:01:41;;;;;;;4.80;1.45;;;;;;;;;;5068533;28;20041;-69
2022/05/03 12:04:08;;;;;;;4.28;1.38;;;;;;;;;;5069448;28;20047;-70
2022/05/03 12:06:44;;;;;;;6.75;1.45;;;;;;;;;;5068389;28;20115;-70
2022/05/03 12:09:17;;;;;;;3.15;1.20;;;;;;;;;;5072055;28;20041;-70
2022/05/03 12:14:38;;;;;;;4.82;1.80;;;;;;;;;;5089756;28;20048;-71
2022/05/03 12:17:04;;;;;;;4.05;1.23;;;;;;;;;;5086450;28;20067;-71
2022/05/03 12:19:35;;;;;;;3.17;1.23;;;;;;;;;;5069357;28;20123;-71
2022/05/03 12:22:16;;;;;;;3.20;1.30;;;;;;;;;;5067701;28;20144;-71
2022/05/03 12:24:47;;;;;;;3.60;1.30;;;;;;;;;;5068719;28;20128;-71
2022/05/03 12:27:15;;;;;;;4.15;1.40;;;;;;;;;;5069362;28;20094;-71
2022/05/03 12:29:48;;;;;;;3.78;1.27;;;;;;;;;;5069061;28;20044;-69
2022/05/03 12:32:15;;;;;;;3.50;1.30;;;;;;;;;;5069104;28;20040;-70
2022/05/03 12:34:54;;;;;;;3.78;1.10;;;;;;;;;;5082535;28;20109;-70
2022/05/03 12:37:20;;;;;;;;;;;;;;;;;;5067894;28;20056;-70
2022/05/03 12:39:47;;;;;;;4.65;1.30;;;;;;;;;;5068796;28;19975;-69
2022/05/03 12:42:15;;;;;;;4.07;1.42;;;;;;;;;;5069082;28;20040;-71
2022/05/03 12:44:49;;;;;;;3.75;1.17;;;;;;;;;;5068674;28;20890;-70
2022/05/03 12:47:15;;;;;;;3.97;1.13;;;;;;;;;;5067908;28;20402;-72
2022/05/03 12:49:41;;;;;;;6.30;1.33;;;;;;;;;;5067370;28;20497;-72
2022/05/03 12:52:08;;;;;;;6.63;1.55;;;;;;;;;;5069006;28;21580;-73
2022/05/03 12:54:34;;;;;;;5.75;1.08;;;;;;;;;;5080546;28;20131;-73
2022/05/03 12:59:44;;;;;;;6.72;1.30;;;;;;;;;;5068603;28;20056;-73
2022/05/03 13:02:10;;;;;;;3.88;1.50;;;;;;;;;;5068677;28;20121;-73
2022/05/03 13:04:37;;;;;;;4.40;1.02;;;;;;;;;;5068122;28;20098;-73
2022/05/03 13:07:04;;;;;;;2.20;1.00;;;;;;;;;;5068723;28;20501;-73
2022/05/03 13:09:31;;;;;;;5.53;1.30;;;;;;;;;;5068656;28;20044;-73
2022/05/03 13:11:58;;;;;;;3.17;1.25;;;;;;;;;;5068115;28;20582;-72
2022/05/03 13:14:26;;;;;;;2.88;1.20;;;;;;;;;;5070371;28;20060;-73
2022/05/03 13:16:53;;;;;;;4.47;1.88;;;;;;;;;;5088576;28;20060;-73
2022/05/03 13:19:19;;;;;;;3.45;1.13;;;;;;;;;;5088860;28;20117;-73
2022/05/03 13:21:45;;;;;;;3.75;1.33;;;;;;;;;;5088902;28;20447;-73
2022/05/03 13:24:12;;;;;;;2.80;0.95;;;;;;;;;;5087411;28;20398;-72
2022/05/03 13:26:39;;;;;;;4.70;1.17;;;;;;;;;;5088505;28;20055;-73
2022/05/03 13:29:10;;;;;;;4.50;1.40;;;;;;;;;;5086831;28;20046;-73
2022/05/03 13:31:37;;;;;;;5.88;1.45;;;;;;;;;;5068448;28;20418;-73
2022/05/03 13:34:04;;;;;;;3.58;1.27;;;;;;;;;;5066576;28;20097;-73
2022/05/03 13:42:00;;;;;;;5.63;1.20;;;;;;;;;;5068283;28;20048;-73
2022/05/03 13:44:26;;;;;;;6.68;1.40;;;;;;;;;;5068356;28;20048;-73
2022/05/03 13:46:52;;;;;;;4.97;1.27;;;;;;;;;;5067982;28;20461;-73
2022/05/03 13:49:19;;;;;;;4.60;1.65;;;;;;;;;;5068624;28;20539;-73
2022/05/03 13:51:45;;;;;;;3.10;1.10;;;;;;;;;;5050495;28;20487;-73
2022/05/03 13:54:12;;;;;;;3.58;1.40;;;;;;;;;;5068767;28;20041;-73
2022/05/03 13:56:38;;;;;;;3.17;1.25;;;;;;;;;;5067139;28;20045;-73
2022/05/03 13:59:05;;;;;;;2.65;1.20;;;;;;;;;;5066728;28;20056;-73
2022/05/03 14:01:34;;;;;;;3.05;1.05;;;;;;;;;;5068307;28;20102;-73
2022/05/03 14:04:03;;;;;;;3.67;1.30;;;;;;;;;;5068275;28;20041;-73
2022/05/03 14:06:29;;;;;;;3.42;1.05;;;;;;;;;;5068449;28;20203;-73
2022/05/03 14:08:55;;;;;;;2.17;1.08;;;;;;;;;;5067232;28;20140;-73
2022/05/03 14:11:22;;;;;;;3.53;1.00;;;;;;;;;;5067834;28;20110;-73
2022/05/03 14:13:48;;;;;;;3.10;1.35;;;;;;;;;;5068169;28;20120;-74
2022/05/03 14:16:16;;;;;;;2.90;1.40;;;;;;;;;;5067994;28;20063;-74
2022/05/03 14:18:43;;;;;;;2.00;0.90;;;;;;;;;;5072292;28;20054;-74
2022/05/03 14:21:09;;;;;;;2.30;1.08;;;;;;;;;;5088414;28;20082;-74
2022/05/03 14:23:35;;;;;;;2.72;1.17;;;;;;;;;;5089283;28;20047;-74
2022/05/03 14:26:02;;;;;;;2.45;1.10;;;;;;;;;;5091310;28;20044;-74
2022/05/03 14:28:29;;;;;;;4.55;1.13;;;;;;;;;;5092038;28;20051;-75
2022/05/03 14:30:55;;;;;;;5.38;1.25;;;;;;;;;;5091930;28;20105;-73
2022/05/03 14:33:21;;;;;;;4.82;1.38;;;;;;;;;;5074085;28;20134;-72
2022/05/03 14:35:47;;;;;;;3.13;1.10;;;;;;;;;;5071509;28;20049;-73
2022/05/03 14:38:13;;;;;;;4.05;1.40;;;;;;;;;;5071401;28;20044;-72
2022/05/03 14:40:39;;;;;;;6.68;2.70;;;;;;;;;;5090577;28;20078;-73
2022/05/03 14:43:09;;;;;;;3.03;1.13;;;;;;;;;;5089673;28;20531;-72
2022/05/03 14:45:35;;;;;;;4.18;1.13;;;;;;;;;;5090975;28;20571;-72
2022/05/03 14:48:06;;;;;;;2.70;1.10;;;;;;;;;;5090348;28;20404;-70
2022/05/03 14:50:32;;;;;;;6.35;1.10;;;;;;;;;;5091565;28;20054;-68
2022/05/03 14:52:58;;;;;;;3.92;1.50;;;;;;;;;;5081089;28;20044;-69
2022/05/03 14:55:25;;;;;;;4.95;1.02;;;;;;;;;;5088495;28;20051;-69
2022/05/03 15:03:21;;;;;;;5.95;1.40;;;;;;;;;;5079081;28;20147;-68
2022/05/03 15:05:47;;;;;;;6.10;1.63;;;;;;;;;;5076386;28;20160;-70
2022/05/03 15:08:13;;;;;;;8.77;1.65;;;;;;;;;;5074107;28;20417;-69
2022/05/03 15:10:39;;;;;;;5.15;1.35;;;;;;;;;;5073765;28;20043;-70
2022/05/03 15:13:06;;;;;;;6.45;1.52;;;;;;;;;;5075693;28;20468;-67
2022/05/03 15:15:33;;;;;;;5.07;1.63;;;;;;;;;;5072059;28;20060;-68
2022/05/03 15:17:59;;;;;;;5.10;1.50;;;;;;;;;;5076816;28;20106;-68
2022/05/03 15:20:28;;;;;;;5.95;1.50;;;;;;;;;;5072933;28;20105;-68
2022/05/03 15:25:42;;;;;;;32.83;9.00;;;;;;;;;;5073675;28;20052;-69
2022/05/03 15:28:08;;;;;;;27.05;6.38;;;;;;;;;;5077291;28;20493;-69
2022/05/03 15:30:35;;;;;;;14.75;3.95;;;;;;;;;;5056011;28;20044;-69
2022/05/03 15:33:01;;;;;;;11.00;3.50;;;;;;;;;;5073365;28;20052;-67
2022/05/03 15:35:31;;;;;;;11.85;2.50;;;;;;;;;;5074591;28;20064;-68
2022/05/03 15:37:58;;;;;;;;;;;;;;;;;;5073951;28;20048;-69
2022/05/03 15:40:24;;;;;;;9.95;2.88;;;;;;;;;;5075376;28;19920;-68
2022/05/03 15:42:50;;;;;;;9.73;3.03;;;;;;;;;;5076019;28;20048;-69
2022/05/03 15:45:17;;;;;;;11.85;2.70;;;;;;;;;;5077506;28;20055;-68